sensor_id;sensor_type;location;lat;lon;timestamp;temperature;humidity
18456;DHT22;9357;49.900;8.208;2023-12-20T00:01:30;5.40;99.90
18456;DHT22;9357;49.900;8.208;2023-12-20T00:03:03;5.30;99.90
18456;DHT22;9357;49.900;8.208;2023-12-20T00:04:36;5.30;99.90
18456;DHT22;9357;49.900;8.208;2023-12-20T00:06:08;5.30;99.90
18456;DHT22;9357;49.900;8.208;2023-12-20T00:07:41;5.30;99.90
18456;DHT22;9357;49.900;8.208;2023-12-20T00:09:14;5.40;99.90
18456;DHT22;9357;49.900;8.208;2023-12-20T00:10:46;5.40;99.90
18456;DHT22;9357;49.900;8.208;2023-12-20T00:12:19;5.40;99.90
18456;DHT22;9357;49.900;8.208;2023-12-20T00:13:52;5.30;99.90
18456;DHT22;9357;49.900;8.208;2023-12-20T00:15:24;5.40;99.90
18456;DHT22;9357;49.900;8.208;2023-12-20T00:16:57;5.30;99.90
18456;DHT22;9357;49.900;8.208;2023-12-20T00:18:28;5.30;99.90
18456;DHT22;9357;49.900;8.208;2023-12-20T00:20:01;5.30;99.90
18456;DHT22;9357;49.900;8.208;2023-12-20T00:21:33;5.30;99.90
18456;DHT22;9357;49.900;8.208;2023-12-20T00:23:06;5.30;99.90
18456;DHT22;9357;49.900;8.208;2023-12-20T00:24:39;5.30;99.90
18456;DHT22;9357;49.900;8.208;2023-12-20T00:26:12;5.30;99.90
18456;DHT22;9357;49.900;8.208;2023-12-20T00:27:45;5.30;99.90
18456;DHT22;9357;49.900;8.208;2023-12-20T00:29:18;5.30;99.90
18456;DHT22;9357;49.900;8.208;2023-12-20T00:30:50;5.40;99.90
18456;DHT22;9357;49.900;8.208;2023-12-20T00:32:23;5.40;99.90
18456;DHT22;9357;49.900;8.208;2023-12-20T00:33:55;5.30;99.90
18456;DHT22;9357;49.900;8.208;2023-12-20T00:35:28;5.40;99.90
18456;DHT22;9357;49.900;8.208;2023-12-20T00:37:00;5.30;99.90
18456;DHT22;9357;49.900;8.208;2023-12-20T00:38:32;5.30;99.90
18456;DHT22;9357;49.900;8.208;2023-12-20T00:40:05;5.30;99.90
18456;DHT22;9357;49.900;8.208;2023-12-20T00:41:38;5.30;99.90
18456;DHT22;9357;49.900;8.208;2023-12-20T00:43:12;5.40;99.90
18456;DHT22;9357;49.900;8.208;2023-12-20T00:44:45;5.40;99.90
18456;DHT22;9357;49.900;8.208;2023-12-20T00:46:17;5.30;99.90
18456;DHT22;9357;49.900;8.208;2023-12-20T00:47:51;5.30;99.90
18456;DHT22;9357;49.900;8.208;2023-12-20T00:49:24;5.30;99.90
18456;DHT22;9357;49.900;8.208;2023-12-20T00:50:57;5.30;99.90
18456;DHT22;9357;49.900;8.208;2023-12-20T00:52:29;5.30;99.90
18456;DHT22;9357;49.900;8.208;2023-12-20T00:54:01;5.30;99.90
18456;DHT22;9357;49.900;8.208;2023-12-20T00:55:34;5.30;99.90
18456;DHT22;9357;49.900;8.208;2023-12-20T00:57:06;5.30;99.90
18456;DHT22;9357;49.900;8.208;2023-12-20T00:58:40;5.40;99.90
18456;DHT22;9357;49.900;8.208;2023-12-20T01:00:12;5.30;99.90
18456;DHT22;9357;49.900;8.208;2023-12-20T01:01:45;5.40;99.90
18456;DHT22;9357;49.900;8.208;2023-12-20T01:03:17;5.40;99.90
18456;DHT22;9357;49.900;8.208;2023-12-20T01:04:50;5.40;99.90
18456;DHT22;9357;49.900;8.208;2023-12-20T01:06:23;5.30;99.90
18456;DHT22;9357;49.900;8.208;2023-12-20T01:07:55;5.30;99.90
18456;DHT22;9357;49.900;8.208;2023-12-20T01:09:27;5.30;99.90
18456;DHT22;9357;49.900;8.208;2023-12-20T01:10:59;5.30;99.90
18456;DHT22;9357;49.900;8.208;2023-12-20T01:12:32;5.30;99.90
18456;DHT22;9357;49.900;8.208;2023-12-20T01:14:05;5.30;99.90
18456;DHT22;9357;49.900;8.208;2023-12-20T01:15:38;5.30;99.90
18456;DHT22;9357;49.900;8.208;2023-12-20T01:17:09;5.30;99.90
18456;DHT22;9357;49.900;8.208;2023-12-20T01:18:42;5.30;99.90
18456;DHT22;9357;49.900;8.208;2023-12-20T01:20:14;5.30;99.90
18456;DHT22;9357;49.900;8.208;2023-12-20T01:21:47;5.30;99.90
18456;DHT22;9357;49.900;8.208;2023-12-20T01:23:19;5.30;99.90
18456;DHT22;9357;49.900;8.208;2023-12-20T01:24:51;5.30;99.90
18456;DHT22;9357;49.900;8.208;2023-12-20T01:26:23;5.30;99.90
18456;DHT22;9357;49.900;8.208;2023-12-20T01:27:56;5.30;99.90
18456;DHT22;9357;49.900;8.208;2023-12-20T01:29:29;5.30;99.90
18456;DHT22;9357;49.900;8.208;2023-12-20T01:31:02;5.30;99.90
18456;DHT22;9357;49.900;8.208;2023-12-20T01:32:34;5.30;99.90
18456;DHT22;9357;49.900;8.208;2023-12-20T01:34:07;5.30;99.90
18456;DHT22;9357;49.900;8.208;2023-12-20T01:35:39;5.30;99.90
18456;DHT22;9357;49.900;8.208;2023-12-20T01:37:11;5.30;99.90
18456;DHT22;9357;49.900;8.208;2023-12-20T01:38:43;5.30;99.90
18456;DHT22;9357;49.900;8.208;2023-12-20T01:40:16;5.30;99.90
18456;DHT22;9357;49.900;8.208;2023-12-20T01:41:48;5.30;99.90
18456;DHT22;9357;49.900;8.208;2023-12-20T01:43:21;5.30;99.90
18456;DHT22;9357;49.900;8.208;2023-12-20T01:44:58;5.30;99.90
18456;DHT22;9357;49.900;8.208;2023-12-20T01:46:30;5.30;99.90
18456;DHT22;9357;49.900;8.208;2023-12-20T01:48:04;5.30;99.90
18456;DHT22;9357;49.900;8.208;2023-12-20T01:49:36;5.30;99.90
18456;DHT22;9357;49.900;8.208;2023-12-20T01:51:10;5.30;99.90
18456;DHT22;9357;49.900;8.208;2023-12-20T01:52:42;5.30;99.90
18456;DHT22;9357;49.900;8.208;2023-12-20T01:54:16;5.30;99.90
18456;DHT22;9357;49.900;8.208;2023-12-20T01:55:49;5.30;99.90
18456;DHT22;9357;49.900;8.208;2023-12-20T01:57:23;5.30;99.90
18456;DHT22;9357;49.900;8.208;2023-12-20T01:58:56;5.30;99.90
18456;DHT22;9357;49.900;8.208;2023-12-20T02:00:30;5.30;99.90
18456;DHT22;9357;49.900;8.208;2023-12-20T02:02:03;5.30;99.90
18456;DHT22;9357;49.900;8.208;2023-12-20T02:03:36;5.30;99.90
18456;DHT22;9357;49.900;8.208;2023-12-20T02:05:09;5.40;99.90
18456;DHT22;9357;49.900;8.208;2023-12-20T02:06:42;5.30;99.90
18456;DHT22;9357;49.900;8.208;2023-12-20T02:08:15;5.30;99.90
18456;DHT22;9357;49.900;8.208;2023-12-20T02:09:48;5.30;99.90
18456;DHT22;9357;49.900;8.208;2023-12-20T02:11:20;5.30;99.90
18456;DHT22;9357;49.900;8.208;2023-12-20T02:12:53;5.30;99.90
18456;DHT22;9357;49.900;8.208;2023-12-20T02:14:25;5.40;99.90
18456;DHT22;9357;49.900;8.208;2023-12-20T02:16:00;5.30;99.90
18456;DHT22;9357;49.900;8.208;2023-12-20T02:17:32;5.40;99.90
18456;DHT22;9357;49.900;8.208;2023-12-20T02:19:08;5.30;99.90
18456;DHT22;9357;49.900;8.208;2023-12-20T02:20:42;5.30;99.90
18456;DHT22;9357;49.900;8.208;2023-12-20T02:22:16;5.30;99.90
18456;DHT22;9357;49.900;8.208;2023-12-20T02:23:48;5.30;99.90
18456;DHT22;9357;49.900;8.208;2023-12-20T02:25:21;5.30;99.90
18456;DHT22;9357;49.900;8.208;2023-12-20T02:26:53;5.30;99.90
18456;DHT22;9357;49.900;8.208;2023-12-20T02:28:26;5.30;99.90
18456;DHT22;9357;49.900;8.208;2023-12-20T02:29:58;5.30;99.90
18456;DHT22;9357;49.900;8.208;2023-12-20T02:31:31;5.30;99.90
18456;DHT22;9357;49.900;8.208;2023-12-20T02:33:04;5.30;99.90
18456;DHT22;9357;49.900;8.208;2023-12-20T02:34:39;5.30;99.90
18456;DHT22;9357;49.900;8.208;2023-12-20T02:36:11;5.30;99.90
18456;DHT22;9357;49.900;8.208;2023-12-20T02:37:45;5.30;99.90
18456;DHT22;9357;49.900;8.208;2023-12-20T02:39:18;5.30;99.90
18456;DHT22;9357;49.900;8.208;2023-12-20T02:40:51;5.30;99.90
18456;DHT22;9357;49.900;8.208;2023-12-20T02:42:22;5.30;99.90
18456;DHT22;9357;49.900;8.208;2023-12-20T02:43:55;5.30;99.90
18456;DHT22;9357;49.900;8.208;2023-12-20T02:45:27;5.30;99.90
18456;DHT22;9357;49.900;8.208;2023-12-20T02:47:00;5.30;99.90
18456;DHT22;9357;49.900;8.208;2023-12-20T02:48:32;5.30;99.90
18456;DHT22;9357;49.900;8.208;2023-12-20T02:50:05;5.30;99.90
18456;DHT22;9357;49.900;8.208;2023-12-20T02:51:37;5.30;99.90
18456;DHT22;9357;49.900;8.208;2023-12-20T02:53:12;5.30;99.90
18456;DHT22;9357;49.900;8.208;2023-12-20T02:54:43;5.30;99.90
18456;DHT22;9357;49.900;8.208;2023-12-20T02:56:16;5.30;99.90
18456;DHT22;9357;49.900;8.208;2023-12-20T02:57:48;5.30;99.90
18456;DHT22;9357;49.900;8.208;2023-12-20T02:59:21;5.30;99.90
18456;DHT22;9357;49.900;8.208;2023-12-20T03:00:53;5.30;99.90
18456;DHT22;9357;49.900;8.208;2023-12-20T03:02:26;5.30;99.90
18456;DHT22;9357;49.900;8.208;2023-12-20T03:03:58;5.30;99.90
18456;DHT22;9357;49.900;8.208;2023-12-20T03:05:30;5.30;99.90
18456;DHT22;9357;49.900;8.208;2023-12-20T03:07:03;5.30;99.90
18456;DHT22;9357;49.900;8.208;2023-12-20T03:08:36;5.30;99.90
18456;DHT22;9357;49.900;8.208;2023-12-20T03:10:10;5.30;99.90
18456;DHT22;9357;49.900;8.208;2023-12-20T03:11:54;5.30;99.90
18456;DHT22;9357;49.900;8.208;2023-12-20T03:13:26;5.30;99.90
18456;DHT22;9357;49.900;8.208;2023-12-20T03:14:58;5.40;99.90
18456;DHT22;9357;49.900;8.208;2023-12-20T03:16:31;5.40;99.90
18456;DHT22;9357;49.900;8.208;2023-12-20T03:18:07;5.40;99.90
18456;DHT22;9357;49.900;8.208;2023-12-20T03:19:40;5.40;99.90
18456;DHT22;9357;49.900;8.208;2023-12-20T03:21:12;5.40;99.90
18456;DHT22;9357;49.900;8.208;2023-12-20T03:22:44;5.40;99.90
18456;DHT22;9357;49.900;8.208;2023-12-20T03:24:18;5.40;99.90
18456;DHT22;9357;49.900;8.208;2023-12-20T03:25:51;5.40;99.90
18456;DHT22;9357;49.900;8.208;2023-12-20T03:27:24;5.40;99.90
18456;DHT22;9357;49.900;8.208;2023-12-20T03:28:56;5.40;99.90
18456;DHT22;9357;49.900;8.208;2023-12-20T03:30:28;5.40;99.90
18456;DHT22;9357;49.900;8.208;2023-12-20T03:32:00;5.40;99.90
18456;DHT22;9357;49.900;8.208;2023-12-20T03:33:33;5.40;99.90
18456;DHT22;9357;49.900;8.208;2023-12-20T03:35:05;5.40;99.90
18456;DHT22;9357;49.900;8.208;2023-12-20T03:36:38;5.40;99.90
18456;DHT22;9357;49.900;8.208;2023-12-20T03:38:10;5.40;99.90
18456;DHT22;9357;49.900;8.208;2023-12-20T03:39:44;5.40;99.90
18456;DHT22;9357;49.900;8.208;2023-12-20T03:41:16;5.40;99.90
18456;DHT22;9357;49.900;8.208;2023-12-20T03:42:49;5.40;99.90
18456;DHT22;9357;49.900;8.208;2023-12-20T03:44:20;5.40;99.90
18456;DHT22;9357;49.900;8.208;2023-12-20T03:45:53;5.40;99.90
18456;DHT22;9357;49.900;8.208;2023-12-20T03:47:25;5.40;99.90
18456;DHT22;9357;49.900;8.208;2023-12-20T03:48:58;5.40;99.90
18456;DHT22;9357;49.900;8.208;2023-12-20T03:50:33;5.40;99.90
18456;DHT22;9357;49.900;8.208;2023-12-20T03:52:06;5.40;99.90
18456;DHT22;9357;49.900;8.208;2023-12-20T03:53:38;5.40;99.90
18456;DHT22;9357;49.900;8.208;2023-12-20T03:55:13;5.40;99.90
18456;DHT22;9357;49.900;8.208;2023-12-20T03:56:45;5.40;99.90
18456;DHT22;9357;49.900;8.208;2023-12-20T03:58:18;5.40;99.90
18456;DHT22;9357;49.900;8.208;2023-12-20T03:59:50;5.40;99.90
18456;DHT22;9357;49.900;8.208;2023-12-20T04:01:22;5.40;99.90
18456;DHT22;9357;49.900;8.208;2023-12-20T04:02:54;5.40;99.90
18456;DHT22;9357;49.900;8.208;2023-12-20T04:04:27;5.50;99.90
18456;DHT22;9357;49.900;8.208;2023-12-20T04:05:59;5.40;99.90
18456;DHT22;9357;49.900;8.208;2023-12-20T04:07:32;5.50;99.90
18456;DHT22;9357;49.900;8.208;2023-12-20T04:09:04;5.50;99.90
18456;DHT22;9357;49.900;8.208;2023-12-20T04:10:38;5.40;99.90
18456;DHT22;9357;49.900;8.208;2023-12-20T04:12:09;5.40;99.90
18456;DHT22;9357;49.900;8.208;2023-12-20T04:13:42;5.50;99.90
18456;DHT22;9357;49.900;8.208;2023-12-20T04:15:14;5.50;99.90
18456;DHT22;9357;49.900;8.208;2023-12-20T04:16:47;5.50;99.90
18456;DHT22;9357;49.900;8.208;2023-12-20T04:18:19;5.50;99.90
18456;DHT22;9357;49.900;8.208;2023-12-20T04:19:52;5.50;99.90
18456;DHT22;9357;49.900;8.208;2023-12-20T04:21:24;5.50;99.90
18456;DHT22;9357;49.900;8.208;2023-12-20T04:22:56;5.50;99.90
18456;DHT22;9357;49.900;8.208;2023-12-20T04:24:28;5.50;99.90
18456;DHT22;9357;49.900;8.208;2023-12-20T04:26:03;5.60;99.90
18456;DHT22;9357;49.900;8.208;2023-12-20T04:27:35;5.60;99.90
18456;DHT22;9357;49.900;8.208;2023-12-20T04:29:07;5.60;99.90
18456;DHT22;9357;49.900;8.208;2023-12-20T04:30:40;5.60;99.90
18456;DHT22;9357;49.900;8.208;2023-12-20T04:32:12;5.60;99.90
18456;DHT22;9357;49.900;8.208;2023-12-20T04:33:45;5.60;99.90
18456;DHT22;9357;49.900;8.208;2023-12-20T04:35:17;5.60;99.90
18456;DHT22;9357;49.900;8.208;2023-12-20T04:36:49;5.60;99.90
18456;DHT22;9357;49.900;8.208;2023-12-20T04:38:22;5.60;99.90
18456;DHT22;9357;49.900;8.208;2023-12-20T04:39:55;5.60;99.90
18456;DHT22;9357;49.900;8.208;2023-12-20T04:41:28;5.60;99.90
18456;DHT22;9357;49.900;8.208;2023-12-20T04:43:01;5.60;99.90
18456;DHT22;9357;49.900;8.208;2023-12-20T04:44:33;5.60;99.90
18456;DHT22;9357;49.900;8.208;2023-12-20T04:46:05;5.60;99.90
18456;DHT22;9357;49.900;8.208;2023-12-20T04:47:38;5.60;99.90
18456;DHT22;9357;49.900;8.208;2023-12-20T04:49:10;5.60;99.90
18456;DHT22;9357;49.900;8.208;2023-12-20T04:50:43;5.60;99.90
18456;DHT22;9357;49.900;8.208;2023-12-20T04:52:16;5.60;99.90
18456;DHT22;9357;49.900;8.208;2023-12-20T04:53:48;5.60;99.90
18456;DHT22;9357;49.900;8.208;2023-12-20T04:55:20;5.60;99.90
18456;DHT22;9357;49.900;8.208;2023-12-20T04:56:53;5.60;99.90
18456;DHT22;9357;49.900;8.208;2023-12-20T04:58:26;5.60;99.90
18456;DHT22;9357;49.900;8.208;2023-12-20T04:59:58;5.60;99.90
18456;DHT22;9357;49.900;8.208;2023-12-20T05:01:31;5.60;99.90
18456;DHT22;9357;49.900;8.208;2023-12-20T05:03:03;5.60;99.90
18456;DHT22;9357;49.900;8.208;2023-12-20T05:04:36;5.60;99.90
18456;DHT22;9357;49.900;8.208;2023-12-20T05:06:08;5.50;99.90
18456;DHT22;9357;49.900;8.208;2023-12-20T05:07:40;5.60;99.90
18456;DHT22;9357;49.900;8.208;2023-12-20T05:09:12;5.60;99.90
18456;DHT22;9357;49.900;8.208;2023-12-20T05:10:45;5.50;99.90
18456;DHT22;9357;49.900;8.208;2023-12-20T05:12:18;5.50;99.90
18456;DHT22;9357;49.900;8.208;2023-12-20T05:13:51;5.50;99.90
18456;DHT22;9357;49.900;8.208;2023-12-20T05:15:23;5.50;99.90
18456;DHT22;9357;49.900;8.208;2023-12-20T05:16:55;5.50;99.90
18456;DHT22;9357;49.900;8.208;2023-12-20T05:18:28;5.50;99.90
18456;DHT22;9357;49.900;8.208;2023-12-20T05:20:00;5.50;99.90
18456;DHT22;9357;49.900;8.208;2023-12-20T05:21:32;5.50;99.90
18456;DHT22;9357;49.900;8.208;2023-12-20T05:23:06;5.50;99.90
18456;DHT22;9357;49.900;8.208;2023-12-20T05:24:38;5.40;99.90
18456;DHT22;9357;49.900;8.208;2023-12-20T05:26:11;5.40;99.90
18456;DHT22;9357;49.900;8.208;2023-12-20T05:27:45;5.40;99.90
18456;DHT22;9357;49.900;8.208;2023-12-20T05:29:18;5.30;99.90
18456;DHT22;9357;49.900;8.208;2023-12-20T05:30:51;5.30;99.90
18456;DHT22;9357;49.900;8.208;2023-12-20T05:32:23;5.30;99.90
18456;DHT22;9357;49.900;8.208;2023-12-20T05:33:56;5.20;99.90
18456;DHT22;9357;49.900;8.208;2023-12-20T05:35:28;5.20;99.90
18456;DHT22;9357;49.900;8.208;2023-12-20T05:37:01;5.20;99.90
18456;DHT22;9357;49.900;8.208;2023-12-20T05:38:33;5.10;99.90
18456;DHT22;9357;49.900;8.208;2023-12-20T05:40:07;5.20;99.90
18456;DHT22;9357;49.900;8.208;2023-12-20T05:41:41;5.10;99.90
18456;DHT22;9357;49.900;8.208;2023-12-20T05:43:15;5.10;99.90
18456;DHT22;9357;49.900;8.208;2023-12-20T05:44:48;5.10;99.90
18456;DHT22;9357;49.900;8.208;2023-12-20T05:46:24;5.10;99.90
18456;DHT22;9357;49.900;8.208;2023-12-20T05:47:57;5.10;99.90
18456;DHT22;9357;49.900;8.208;2023-12-20T05:49:28;5.10;99.90
18456;DHT22;9357;49.900;8.208;2023-12-20T05:51:01;5.10;99.90
18456;DHT22;9357;49.900;8.208;2023-12-20T05:52:33;5.10;99.90
18456;DHT22;9357;49.900;8.208;2023-12-20T05:54:06;5.10;99.90
18456;DHT22;9357;49.900;8.208;2023-12-20T05:55:38;5.10;99.90
18456;DHT22;9357;49.900;8.208;2023-12-20T05:57:10;5.10;99.90
18456;DHT22;9357;49.900;8.208;2023-12-20T05:58:44;5.10;99.90
18456;DHT22;9357;49.900;8.208;2023-12-20T06:00:17;5.10;99.90
18456;DHT22;9357;49.900;8.208;2023-12-20T06:01:49;5.00;99.90
18456;DHT22;9357;49.900;8.208;2023-12-20T06:03:22;5.00;99.90
18456;DHT22;9357;49.900;8.208;2023-12-20T06:04:55;5.00;99.90
18456;DHT22;9357;49.900;8.208;2023-12-20T06:06:27;5.00;99.90
18456;DHT22;9357;49.900;8.208;2023-12-20T06:07:59;5.00;99.90
18456;DHT22;9357;49.900;8.208;2023-12-20T06:09:34;5.00;99.90
18456;DHT22;9357;49.900;8.208;2023-12-20T06:11:07;5.00;99.90
18456;DHT22;9357;49.900;8.208;2023-12-20T06:12:39;5.00;99.90
18456;DHT22;9357;49.900;8.208;2023-12-20T06:14:13;5.00;99.90
18456;DHT22;9357;49.900;8.208;2023-12-20T06:15:45;5.00;99.90
18456;DHT22;9357;49.900;8.208;2023-12-20T06:17:17;5.00;99.90
18456;DHT22;9357;49.900;8.208;2023-12-20T06:18:50;4.90;99.90
18456;DHT22;9357;49.900;8.208;2023-12-20T06:20:23;4.90;99.90
18456;DHT22;9357;49.900;8.208;2023-12-20T06:21:54;4.90;99.90
18456;DHT22;9357;49.900;8.208;2023-12-20T06:23:27;4.80;99.90
18456;DHT22;9357;49.900;8.208;2023-12-20T06:24:59;4.80;99.90
18456;DHT22;9357;49.900;8.208;2023-12-20T06:26:32;4.70;99.90
18456;DHT22;9357;49.900;8.208;2023-12-20T06:28:04;4.70;99.90
18456;DHT22;9357;49.900;8.208;2023-12-20T06:29:39;4.60;99.90
18456;DHT22;9357;49.900;8.208;2023-12-20T06:31:12;4.60;99.90
18456;DHT22;9357;49.900;8.208;2023-12-20T06:32:45;4.60;99.90
18456;DHT22;9357;49.900;8.208;2023-12-20T06:34:18;4.60;99.90
18456;DHT22;9357;49.900;8.208;2023-12-20T06:35:51;4.60;99.90
18456;DHT22;9357;49.900;8.208;2023-12-20T06:37:23;4.60;99.90
18456;DHT22;9357;49.900;8.208;2023-12-20T06:38:56;4.60;99.90
18456;DHT22;9357;49.900;8.208;2023-12-20T06:40:29;4.60;99.90
18456;DHT22;9357;49.900;8.208;2023-12-20T06:42:01;4.60;99.90
18456;DHT22;9357;49.900;8.208;2023-12-20T06:43:34;4.60;99.90
18456;DHT22;9357;49.900;8.208;2023-12-20T06:45:21;4.60;99.90
18456;DHT22;9357;49.900;8.208;2023-12-20T06:46:54;4.60;99.90
18456;DHT22;9357;49.900;8.208;2023-12-20T06:48:26;4.60;99.90
18456;DHT22;9357;49.900;8.208;2023-12-20T06:49:59;4.50;99.90
18456;DHT22;9357;49.900;8.208;2023-12-20T06:51:32;4.50;99.90
18456;DHT22;9357;49.900;8.208;2023-12-20T06:53:04;4.50;99.90
18456;DHT22;9357;49.900;8.208;2023-12-20T06:54:38;4.50;99.90
18456;DHT22;9357;49.900;8.208;2023-12-20T06:56:10;4.50;99.90
18456;DHT22;9357;49.900;8.208;2023-12-20T06:57:48;4.50;99.90
18456;DHT22;9357;49.900;8.208;2023-12-20T06:59:20;4.50;99.90
18456;DHT22;9357;49.900;8.208;2023-12-20T07:00:54;4.50;99.90
18456;DHT22;9357;49.900;8.208;2023-12-20T07:02:26;4.50;99.90
18456;DHT22;9357;49.900;8.208;2023-12-20T07:04:02;4.50;99.90
18456;DHT22;9357;49.900;8.208;2023-12-20T07:05:33;4.50;99.90
18456;DHT22;9357;49.900;8.208;2023-12-20T07:07:06;4.50;99.90
18456;DHT22;9357;49.900;8.208;2023-12-20T07:08:40;4.50;99.90
18456;DHT22;9357;49.900;8.208;2023-12-20T07:10:13;4.40;99.90
18456;DHT22;9357;49.900;8.208;2023-12-20T07:11:45;4.50;99.90
18456;DHT22;9357;49.900;8.208;2023-12-20T07:13:18;4.50;99.90
18456;DHT22;9357;49.900;8.208;2023-12-20T07:14:50;4.50;99.90
18456;DHT22;9357;49.900;8.208;2023-12-20T07:16:24;4.40;99.90
18456;DHT22;9357;49.900;8.208;2023-12-20T07:17:57;4.40;99.90
18456;DHT22;9357;49.900;8.208;2023-12-20T07:19:31;4.50;99.90
18456;DHT22;9357;49.900;8.208;2023-12-20T07:21:04;4.50;99.90
18456;DHT22;9357;49.900;8.208;2023-12-20T07:22:36;4.50;99.90
18456;DHT22;9357;49.900;8.208;2023-12-20T07:24:08;4.50;99.90
18456;DHT22;9357;49.900;8.208;2023-12-20T07:25:40;4.50;99.90
18456;DHT22;9357;49.900;8.208;2023-12-20T07:27:13;4.50;99.90
18456;DHT22;9357;49.900;8.208;2023-12-20T07:28:45;4.60;99.90
18456;DHT22;9357;49.900;8.208;2023-12-20T07:30:17;4.50;99.90
18456;DHT22;9357;49.900;8.208;2023-12-20T07:31:52;4.50;99.90
18456;DHT22;9357;49.900;8.208;2023-12-20T07:33:25;4.50;99.90
18456;DHT22;9357;49.900;8.208;2023-12-20T07:34:57;4.60;99.90
18456;DHT22;9357;49.900;8.208;2023-12-20T07:36:30;4.50;99.90
18456;DHT22;9357;49.900;8.208;2023-12-20T07:38:03;4.50;99.90
18456;DHT22;9357;49.900;8.208;2023-12-20T07:39:34;4.50;99.90
18456;DHT22;9357;49.900;8.208;2023-12-20T07:41:09;4.50;99.90
18456;DHT22;9357;49.900;8.208;2023-12-20T07:42:42;4.50;99.90
18456;DHT22;9357;49.900;8.208;2023-12-20T07:44:14;4.50;99.90
18456;DHT22;9357;49.900;8.208;2023-12-20T07:45:47;4.50;99.90
18456;DHT22;9357;49.900;8.208;2023-12-20T07:47:20;4.50;99.90
18456;DHT22;9357;49.900;8.208;2023-12-20T07:48:53;4.60;99.90
18456;DHT22;9357;49.900;8.208;2023-12-20T07:50:25;4.60;99.90
18456;DHT22;9357;49.900;8.208;2023-12-20T07:51:59;4.60;99.90
18456;DHT22;9357;49.900;8.208;2023-12-20T07:53:31;4.50;99.90
18456;DHT22;9357;49.900;8.208;2023-12-20T07:55:04;4.60;99.90
18456;DHT22;9357;49.900;8.208;2023-12-20T07:56:36;4.50;99.90
18456;DHT22;9357;49.900;8.208;2023-12-20T07:58:11;4.50;99.90
18456;DHT22;9357;49.900;8.208;2023-12-20T07:59:43;4.50;99.90
18456;DHT22;9357;49.900;8.208;2023-12-20T08:01:16;4.50;99.90
18456;DHT22;9357;49.900;8.208;2023-12-20T08:02:50;4.50;99.90
18456;DHT22;9357;49.900;8.208;2023-12-20T08:04:23;4.60;99.90
18456;DHT22;9357;49.900;8.208;2023-12-20T08:05:55;4.60;99.90
18456;DHT22;9357;49.900;8.208;2023-12-20T08:07:28;4.60;99.90
18456;DHT22;9357;49.900;8.208;2023-12-20T08:09:00;4.60;99.90
18456;DHT22;9357;49.900;8.208;2023-12-20T08:10:37;4.60;99.90
18456;DHT22;9357;49.900;8.208;2023-12-20T08:12:10;4.60;99.90
18456;DHT22;9357;49.900;8.208;2023-12-20T08:13:42;4.70;99.90
18456;DHT22;9357;49.900;8.208;2023-12-20T08:15:15;4.60;99.90
18456;DHT22;9357;49.900;8.208;2023-12-20T08:16:47;4.70;99.90
18456;DHT22;9357;49.900;8.208;2023-12-20T08:18:21;4.70;99.90
18456;DHT22;9357;49.900;8.208;2023-12-20T08:19:52;4.70;99.90
18456;DHT22;9357;49.900;8.208;2023-12-20T08:21:26;4.80;99.90
18456;DHT22;9357;49.900;8.208;2023-12-20T08:22:57;4.80;99.90
18456;DHT22;9357;49.900;8.208;2023-12-20T08:24:30;4.80;99.90
18456;DHT22;9357;49.900;8.208;2023-12-20T08:26:04;4.80;99.90
18456;DHT22;9357;49.900;8.208;2023-12-20T08:27:39;4.90;99.90
18456;DHT22;9357;49.900;8.208;2023-12-20T08:29:12;4.90;99.90
18456;DHT22;9357;49.900;8.208;2023-12-20T08:30:45;4.90;99.90
18456;DHT22;9357;49.900;8.208;2023-12-20T08:32:17;5.00;99.90
18456;DHT22;9357;49.900;8.208;2023-12-20T08:33:52;5.00;99.90
18456;DHT22;9357;49.900;8.208;2023-12-20T08:35:25;5.00;99.90
18456;DHT22;9357;49.900;8.208;2023-12-20T08:36:57;5.10;99.90
18456;DHT22;9357;49.900;8.208;2023-12-20T08:38:30;5.10;99.90
18456;DHT22;9357;49.900;8.208;2023-12-20T08:40:02;5.20;99.90
18456;DHT22;9357;49.900;8.208;2023-12-20T08:41:35;5.30;99.90
18456;DHT22;9357;49.900;8.208;2023-12-20T08:43:07;5.30;99.90
18456;DHT22;9357;49.900;8.208;2023-12-20T08:44:39;5.30;99.90
18456;DHT22;9357;49.900;8.208;2023-12-20T08:46:12;5.40;99.90
18456;DHT22;9357;49.900;8.208;2023-12-20T08:47:46;5.40;99.90
18456;DHT22;9357;49.900;8.208;2023-12-20T08:49:19;5.40;99.90
18456;DHT22;9357;49.900;8.208;2023-12-20T08:50:52;5.50;99.90
18456;DHT22;9357;49.900;8.208;2023-12-20T08:52:24;5.50;99.90
18456;DHT22;9357;49.900;8.208;2023-12-20T08:53:58;5.60;99.90
18456;DHT22;9357;49.900;8.208;2023-12-20T08:55:30;5.60;99.90
18456;DHT22;9357;49.900;8.208;2023-12-20T08:57:04;5.70;99.90
18456;DHT22;9357;49.900;8.208;2023-12-20T08:58:38;5.70;99.90
18456;DHT22;9357;49.900;8.208;2023-12-20T09:00:12;5.70;99.90
18456;DHT22;9357;49.900;8.208;2023-12-20T09:01:44;5.70;99.90
18456;DHT22;9357;49.900;8.208;2023-12-20T09:03:18;5.70;99.90
18456;DHT22;9357;49.900;8.208;2023-12-20T09:04:51;5.70;99.90
18456;DHT22;9357;49.900;8.208;2023-12-20T09:06:24;5.70;99.90
18456;DHT22;9357;49.900;8.208;2023-12-20T09:07:56;5.70;99.90
18456;DHT22;9357;49.900;8.208;2023-12-20T09:09:29;5.70;99.90
18456;DHT22;9357;49.900;8.208;2023-12-20T09:11:03;5.70;99.90
18456;DHT22;9357;49.900;8.208;2023-12-20T09:12:36;5.80;99.90
18456;DHT22;9357;49.900;8.208;2023-12-20T09:14:11;5.70;99.90
18456;DHT22;9357;49.900;8.208;2023-12-20T09:15:44;5.80;99.90
18456;DHT22;9357;49.900;8.208;2023-12-20T09:17:16;5.80;99.90
18456;DHT22;9357;49.900;8.208;2023-12-20T09:18:49;5.80;99.90
18456;DHT22;9357;49.900;8.208;2023-12-20T09:20:23;5.80;99.90
18456;DHT22;9357;49.900;8.208;2023-12-20T09:21:56;5.80;99.90
18456;DHT22;9357;49.900;8.208;2023-12-20T09:23:28;5.90;99.90
18456;DHT22;9357;49.900;8.208;2023-12-20T09:25:00;5.90;99.90
18456;DHT22;9357;49.900;8.208;2023-12-20T09:26:33;5.90;99.90
18456;DHT22;9357;49.900;8.208;2023-12-20T09:28:06;6.00;99.90
18456;DHT22;9357;49.900;8.208;2023-12-20T09:29:38;6.00;99.90
18456;DHT22;9357;49.900;8.208;2023-12-20T09:31:10;6.00;99.90
18456;DHT22;9357;49.900;8.208;2023-12-20T09:32:42;6.00;99.90
18456;DHT22;9357;49.900;8.208;2023-12-20T09:34:18;6.00;99.90
18456;DHT22;9357;49.900;8.208;2023-12-20T09:35:52;6.10;99.90
18456;DHT22;9357;49.900;8.208;2023-12-20T09:37:26;6.10;99.90
18456;DHT22;9357;49.900;8.208;2023-12-20T09:38:58;6.10;99.90
18456;DHT22;9357;49.900;8.208;2023-12-20T09:40:32;6.10;99.90
18456;DHT22;9357;49.900;8.208;2023-12-20T09:42:06;6.10;99.90
18456;DHT22;9357;49.900;8.208;2023-12-20T09:43:41;6.10;99.90
18456;DHT22;9357;49.900;8.208;2023-12-20T09:45:15;6.10;99.90
18456;DHT22;9357;49.900;8.208;2023-12-20T09:46:50;6.10;99.90
18456;DHT22;9357;49.900;8.208;2023-12-20T09:48:22;6.10;99.90
18456;DHT22;9357;49.900;8.208;2023-12-20T09:49:55;6.10;99.90
18456;DHT22;9357;49.900;8.208;2023-12-20T09:51:31;6.20;99.90
18456;DHT22;9357;49.900;8.208;2023-12-20T09:53:05;6.20;99.90
18456;DHT22;9357;49.900;8.208;2023-12-20T09:54:40;6.20;99.90
18456;DHT22;9357;49.900;8.208;2023-12-20T09:56:13;6.20;99.90
18456;DHT22;9357;49.900;8.208;2023-12-20T09:57:47;6.20;99.90
18456;DHT22;9357;49.900;8.208;2023-12-20T09:59:19;6.30;99.90
18456;DHT22;9357;49.900;8.208;2023-12-20T10:00:53;6.30;99.90
18456;DHT22;9357;49.900;8.208;2023-12-20T10:02:26;6.30;99.90
18456;DHT22;9357;49.900;8.208;2023-12-20T10:04:00;6.40;99.90
18456;DHT22;9357;49.900;8.208;2023-12-20T10:05:39;6.40;99.90
18456;DHT22;9357;49.900;8.208;2023-12-20T10:07:16;6.40;99.90